This is the latest recevied weather packets stored in our database for station/object WD4HMR. If no packets are shown the sender has not sent any weather packets the latest 10 day(s).
| Time | Temp. | Humidity | Pressure | Rain* | Wind** | Luminosity | Snow |
|---|---|---|---|---|---|---|---|
| 1777501319 | 25.56° C | 80% | 1012.3 hPa | 0 mm | - | - | - |
| 1777501172 | 25.56° C | 80% | 1012.3 hPa | 0 mm | - | - | - |
| 1777500899 | 26.11° C | 78% | 1012.4 hPa | 0 mm | - | - | - |
| 1777500691 | 26.11° C | 77% | 1012.4 hPa | 0 mm | - | - | - |
| 1777500479 | 26.11° C | 77% | 1012.4 hPa | 0 mm | - | - | - |
| 1777500211 | 26.11° C | 78% | 1012.5 hPa | 0 mm | - | - | - |
| 1777500060 | 26.11° C | 78% | 1012.5 hPa | 0 mm | - | - | - |
| 1777499639 | 25.56° C | 79% | 1012.7 hPa | 0 mm | - | - | - |
| 1777499252 | 26.11° C | 77% | 1012.7 hPa | 0 mm | - | - | - |
| 1777499220 | 26.11° C | 77% | 1012.7 hPa | 0 mm | - | - | - |
| 1777498800 | 26.67° C | 75% | 1012.7 hPa | 0 mm | - | - | - |
| 1777498772 | 26.67° C | 75% | 1012.7 hPa | 0 mm | - | - | - |
| 1777498380 | 27.22° C | 75% | 1012.7 hPa | 0 mm | - | - | - |
| 1777498292 | 27.22° C | 75% | 1012.6 hPa | 0 mm | - | - | - |
| 1777497959 | 26.67° C | 75% | 1012.7 hPa | 0 mm | - | - | - |
| 1777497812 | 26.67° C | 76% | 1012.7 hPa | 0 mm | - | - | - |
| 1777497539 | 26.11° C | 78% | 1012.7 hPa | 0 mm | - | - | - |
| 1777497332 | 26.11° C | 77% | 1012.8 hPa | 0 mm | - | - | - |
| 1777497119 | 26.11° C | 76% | 1012.9 hPa | 0 mm | - | - | - |
| 1777496852 | 26.11° C | 75% | 1013 hPa | 0 mm | - | - | - |
| 1777496698 | 25.56° C | 78% | 1013 hPa | 0 mm | - | - | - |
| 1777496372 | 25.56° C | 78% | 1012.9 hPa | 0 mm | - | - | - |
| 1777496279 | 25.56° C | 78% | 1012.9 hPa | 0 mm | - | - | - |
| 1777495892 | 25.56° C | 79% | 1012.9 hPa | 0 mm | - | - | - |
| 1777495859 | 25.56° C | 78% | 1012.9 hPa | 0 mm | - | - | - |
* Rain latest hour (hover to see other rain measurements)
** Current wind speed in m/s (hover to see current wind gust speed)